Anelo, Argentina
Current Conditions -  °F | °C
As of 3:00 PM on Friday 28 Nov 2014 (Local Time) from SAZN Reporting Station
Clear Clear  
Wind Chill: 27°   Ceiling: Unl
Heat Index: 27°   Visibility: 6mi
Dew Point:   Wind: 6mph
Humidity: 21%   Direction: 320°NW
Pressure: 29.74"   Gusts: NA
Location:  38.12°S, 68.65°W
Report Text: SAZN 281800Z 32005KT CAVOK 27/03 Q1007
Loading
Personal Weather Stations






























Interactive Weather Map New forecast layout! Learn more

10-Day Weather Forecast

Advertisements
Track Severe Weather on mobile